createdAt,value
2018-06-08T00:01:21.369Z,30.50
2018-06-08T00:03:49.675Z,34.60
2018-06-08T00:06:17.385Z,33.07
2018-06-08T00:08:45.309Z,31.90
2018-06-08T00:11:13.071Z,30.53
2018-06-08T00:13:40.802Z,32.70
2018-06-08T00:16:10.100Z,31.40
2018-06-08T00:18:45.744Z,33.53
2018-06-08T00:21:13.519Z,32.37
2018-06-08T00:23:41.388Z,34.07
2018-06-08T00:26:09.128Z,30.33
2018-06-08T00:28:37.090Z,38.23
2018-06-08T00:31:04.781Z,34.53
2018-06-08T00:33:32.757Z,31.50
2018-06-08T00:36:01.237Z,37.03
2018-06-08T00:38:29.627Z,31.80
2018-06-08T00:40:59.468Z,37.47
2018-06-08T00:43:30.170Z,33.00
2018-06-08T00:46:02.235Z,33.43
2018-06-08T00:48:31.034Z,35.60
2018-06-08T00:51:00.652Z,33.83
2018-06-08T00:53:28.988Z,30.67
2018-06-08T00:55:58.342Z,32.93
2018-06-08T00:58:26.976Z,32.53
2018-06-08T01:00:55.952Z,31.67
2018-06-08T01:03:24.581Z,36.80
2018-06-08T01:05:52.927Z,32.43
2018-06-08T01:08:21.603Z,39.70
2018-06-08T01:10:51.964Z,33.90
2018-06-08T01:13:20.526Z,34.43
2018-06-08T01:15:49.338Z,39.90
2018-06-08T01:18:18.883Z,34.87
2018-06-08T01:20:47.006Z,34.23
2018-06-08T01:23:15.255Z,38.97
2018-06-08T01:25:47.507Z,36.50
2018-06-08T01:28:16.256Z,40.97
2018-06-08T01:30:49.750Z,31.93
2018-06-08T01:33:19.664Z,36.73
2018-06-08T01:45:49.199Z,39.83
2018-06-08T01:48:17.665Z,45.10
2018-06-08T01:50:45.876Z,43.23
2018-06-08T01:53:18.276Z,40.63
2018-06-08T01:55:46.856Z,41.40
2018-06-08T01:58:17.456Z,41.20
2018-06-08T02:00:45.418Z,42.77
2018-06-08T02:03:13.426Z,39.80
2018-06-08T02:05:43.763Z,46.80
2018-06-08T02:08:12.300Z,52.03
2018-06-08T02:10:45.433Z,33.33
2018-06-08T02:13:15.055Z,36.67
2018-06-08T02:15:49.290Z,40.73
2018-06-08T02:18:18.039Z,46.00
2018-06-08T02:20:50.276Z,42.07
2018-06-08T02:23:18.672Z,37.20
2018-06-08T02:25:51.976Z,42.07
2018-06-08T02:28:29.473Z,65.60
2018-06-08T02:30:59.321Z,56.23
2018-06-08T02:33:27.760Z,51.90
2018-06-08T02:35:59.270Z,52.43
2018-06-08T02:38:27.719Z,51.23
2018-06-08T02:40:55.363Z,57.30
2018-06-08T02:43:23.163Z,57.23
2018-06-08T02:45:51.080Z,58.27
2018-06-08T02:48:19.407Z,72.43
2018-06-08T02:50:51.738Z,67.03
2018-06-08T02:53:24.950Z,58.77
2018-06-08T02:55:54.891Z,52.83
2018-06-08T02:58:23.390Z,57.47
2018-06-08T03:00:57.236Z,49.63
2018-06-08T03:03:27.248Z,47.50
2018-06-08T03:05:55.207Z,54.03
2018-06-08T03:08:26.847Z,56.87
2018-06-08T03:10:58.738Z,55.13
2018-06-08T03:13:27.239Z,56.07
2018-06-08T03:33:59.351Z,72.72
2018-06-08T03:41:28.305Z,73.45
2018-06-08T03:43:57.942Z,81.63
2018-06-08T03:46:27.487Z,68.97
2018-06-08T03:48:59.096Z,75.57
2018-06-08T03:54:30.003Z,71.37
2018-06-08T03:56:57.659Z,71.67
2018-06-08T03:59:25.461Z,74.40
2018-06-08T04:01:53.178Z,69.70
2018-06-08T04:04:21.922Z,81.57
2018-06-08T04:06:49.886Z,72.17
2018-06-08T04:09:17.838Z,71.77
2018-06-08T04:11:45.675Z,79.90
2018-06-08T04:14:14.290Z,81.03
2018-06-08T04:16:42.301Z,75.47
2018-06-08T04:19:10.331Z,93.53
2018-06-08T04:21:38.530Z,78.47
2018-06-08T04:24:06.171Z,74.07
2018-06-08T04:26:35.417Z,71.97
2018-06-08T04:29:03.486Z,82.43
2018-06-08T04:31:43.880Z,92.33
2018-06-08T04:36:59.336Z,81.23
2018-06-08T04:39:27.917Z,73.27
2018-06-08T04:41:57.450Z,78.73
2018-06-08T04:44:25.477Z,87.33
2018-06-08T04:46:57.306Z,79.70
2018-06-08T04:49:27.642Z,72.43
2018-06-08T04:51:55.903Z,68.33
2018-06-08T04:54:24.299Z,76.33
2018-06-08T04:56:53.445Z,75.67
2018-06-08T04:59:26.434Z,73.90
2018-06-08T05:01:54.762Z,74.70
2018-06-08T05:04:22.499Z,74.57
2018-06-08T05:06:55.186Z,70.17
2018-06-08T05:09:24.449Z,73.70
2018-06-08T05:11:53.087Z,69.23
2018-06-08T05:14:21.043Z,71.23
2018-06-08T05:16:48.643Z,93.73
2018-06-08T05:19:16.667Z,71.30
2018-06-08T05:21:44.345Z,61.30
2018-06-08T05:24:11.958Z,69.43
2018-06-08T05:26:40.561Z,68.20
2018-06-08T05:29:08.314Z,59.07
2018-06-08T05:31:37.022Z,69.03
2018-06-08T05:41:30.166Z,70.27
2018-06-08T05:43:58.054Z,60.10
2018-06-08T05:46:25.818Z,64.50
2018-06-08T05:48:54.027Z,67.80
2018-06-08T05:51:21.630Z,60.87
2018-06-08T05:53:52.843Z,68.37
2018-06-08T05:56:21.011Z,67.97
2018-06-08T05:58:49.151Z,67.17
2018-06-08T06:01:17.614Z,66.23
2018-06-08T06:03:45.223Z,69.87
2018-06-08T06:06:12.991Z,63.07
2018-06-08T06:08:40.885Z,65.17
2018-06-08T06:11:09.375Z,64.90
2018-06-08T06:13:36.946Z,75.77
2018-06-08T06:16:04.867Z,63.50
2018-06-08T06:18:33.269Z,65.50
2018-06-08T06:21:01.286Z,64.70
2018-06-08T06:23:28.950Z,67.63
2018-06-08T06:25:56.794Z,77.13
2018-06-08T06:28:24.404Z,64.40
2018-06-08T06:30:52.102Z,68.77
2018-06-08T06:33:20.316Z,68.17
2018-06-08T06:35:48.124Z,67.47
2018-06-08T06:38:15.702Z,65.00
2018-06-08T06:40:43.377Z,77.90
2018-06-08T06:43:11.354Z,69.40
2018-06-08T06:45:39.121Z,67.00
2018-06-08T06:48:07.028Z,61.07
2018-06-08T06:50:34.546Z,61.50
2018-06-08T06:53:02.638Z,63.87
2018-06-08T06:55:30.519Z,60.03
2018-06-08T06:57:58.393Z,68.53
2018-06-08T07:00:26.039Z,65.93
2018-06-08T07:02:53.755Z,64.70
2018-06-08T07:05:23.432Z,65.73
2018-06-08T07:07:51.140Z,60.80
2018-06-08T07:10:19.012Z,59.77
2018-06-08T07:12:46.809Z,59.00
2018-06-08T07:15:14.515Z,58.60
2018-06-08T07:17:42.204Z,63.90
2018-06-08T07:20:09.732Z,56.07
2018-06-08T07:22:38.299Z,58.77
2018-06-08T07:25:05.999Z,53.83
2018-06-08T07:27:34.156Z,62.57
2018-06-08T07:30:01.850Z,48.63
2018-06-08T07:32:29.533Z,60.13
2018-06-08T07:34:57.331Z,52.93
2018-06-08T07:37:25.075Z,54.13
2018-06-08T07:39:53.134Z,53.03
2018-06-08T07:42:21.138Z,54.07
2018-06-08T07:44:48.823Z,48.77
2018-06-08T07:47:16.504Z,55.40
2018-06-08T07:49:44.252Z,51.20
2018-06-08T07:52:11.804Z,52.80
2018-06-08T07:54:39.824Z,49.03
2018-06-08T07:57:07.523Z,51.87
2018-06-08T07:59:35.140Z,55.63
2018-06-08T08:02:02.822Z,54.57
2018-06-08T08:04:30.581Z,44.20
2018-06-08T08:06:58.217Z,47.63
2018-06-08T08:09:26.465Z,45.07
2018-06-08T08:11:54.045Z,49.77
2018-06-08T08:14:21.696Z,43.87
2018-06-08T08:16:49.453Z,46.83
2018-06-08T08:19:17.130Z,42.87
2018-06-08T08:21:44.758Z,41.27
2018-06-08T08:24:12.447Z,40.50
2018-06-08T08:26:40.033Z,33.20
2018-06-08T08:29:07.770Z,41.33
2018-06-08T08:31:35.401Z,34.60
2018-06-08T08:34:03.096Z,34.20
2018-06-08T08:36:30.865Z,33.03
2018-06-08T08:38:58.544Z,32.73
2018-06-08T08:41:26.364Z,40.37
2018-06-08T08:43:54.462Z,35.70
2018-06-08T08:46:22.125Z,35.97
2018-06-08T08:48:49.888Z,37.43
2018-06-08T08:51:17.749Z,36.93
2018-06-08T08:53:45.590Z,35.80
2018-06-08T08:56:13.259Z,36.43
2018-06-08T08:58:41.517Z,34.80
2018-06-08T09:01:09.212Z,34.70
2018-06-08T09:03:36.866Z,32.97
2018-06-08T09:06:04.659Z,32.83
2018-06-08T09:08:32.577Z,32.07
2018-06-08T09:11:00.287Z,29.67
2018-06-08T09:13:27.930Z,30.37
2018-06-08T09:15:55.609Z,31.57
2018-06-08T09:18:23.239Z,32.17
2018-06-08T09:20:50.818Z,28.03
2018-06-08T09:23:18.395Z,30.80
2018-06-08T09:25:46.123Z,35.63
2018-06-08T09:28:13.713Z,31.87
2018-06-08T09:30:42.408Z,33.20
2018-06-08T09:33:10.121Z,38.53
2018-06-08T09:35:37.690Z,33.13
2018-06-08T09:38:05.360Z,34.90
2018-06-08T09:40:35.227Z,31.70
2018-06-08T09:43:03.731Z,34.20
2018-06-08T09:45:31.372Z,30.60
2018-06-08T09:47:59.136Z,29.20
2018-06-08T09:50:26.955Z,32.83
2018-06-08T09:52:54.713Z,28.83
2018-06-08T09:55:22.773Z,35.00
2018-06-08T09:57:50.439Z,26.90
2018-06-08T10:00:23.659Z,28.80
2018-06-08T10:02:51.276Z,33.93
2018-06-08T10:05:18.926Z,33.83
2018-06-08T10:07:46.457Z,25.53
2018-06-08T10:10:14.179Z,38.17
2018-06-08T10:12:42.553Z,35.53
2018-06-08T10:15:10.493Z,29.87
2018-06-08T10:17:38.328Z,23.90
2018-06-08T10:20:06.272Z,28.50
2018-06-08T10:22:33.875Z,29.17
2018-06-08T10:25:01.460Z,22.90
2018-06-08T10:27:29.111Z,27.13
2018-06-08T10:29:56.710Z,23.33
2018-06-08T11:11:38.398Z,30.75
2018-06-08T11:14:06.145Z,21.80
2018-06-08T11:16:33.967Z,18.93
2018-06-08T14:45:12.809Z,9.93
2018-06-08T15:12:11.883Z,28.60
2018-06-08T15:14:39.693Z,26.83
2018-06-08T15:17:08.315Z,32.00
2018-06-08T15:19:38.276Z,16.80
2018-06-08T15:22:06.015Z,12.53
2018-06-08T15:24:33.636Z,42.40
2018-06-08T15:27:01.361Z,17.90
2018-06-08T15:29:29.208Z,37.40
2018-06-08T15:31:56.936Z,9.83
2018-06-08T15:34:24.654Z,7.87
2018-06-08T15:36:52.614Z,11.53
2018-06-08T15:39:23.824Z,12.47
2018-06-08T15:41:51.547Z,7.90
2018-06-08T15:44:19.406Z,12.50
2018-06-08T15:46:47.004Z,11.63
2018-06-08T15:49:14.711Z,19.40
2018-06-08T15:51:43.256Z,11.00
2018-06-08T15:54:10.969Z,7.83
2018-06-08T15:56:38.529Z,7.63
2018-06-08T15:59:07.188Z,71.70
2018-06-08T16:01:35.016Z,9.60
2018-06-08T16:04:02.702Z,18.47
2018-06-08T16:06:30.919Z,20.90
2018-06-08T16:08:58.654Z,56.77
2018-06-08T16:11:28.448Z,10.07
2018-06-08T16:13:56.290Z,8.07
2018-06-08T16:16:24.000Z,7.03
2018-06-08T16:18:51.759Z,7.77
2018-06-08T16:21:19.420Z,9.70
2018-06-08T16:23:47.114Z,7.37
2018-06-08T16:26:14.842Z,16.03
2018-06-08T16:28:42.495Z,7.03
2018-06-08T16:31:10.175Z,7.10
2018-06-08T16:33:38.843Z,8.13
2018-06-08T16:36:06.652Z,10.33
2018-06-08T16:38:34.323Z,7.90
2018-06-08T16:41:02.329Z,11.03
2018-06-08T16:43:30.016Z,8.47
2018-06-08T16:45:57.916Z,10.23
2018-06-08T16:48:25.843Z,8.03
2018-06-08T16:50:54.155Z,14.13
2018-06-08T16:53:21.854Z,10.40
2018-06-08T16:55:50.727Z,9.60
2018-06-08T16:58:18.645Z,9.63
2018-06-08T17:00:46.878Z,13.40
2018-06-08T17:03:15.981Z,9.33
2018-06-08T17:05:43.781Z,20.33
2018-06-08T17:08:11.874Z,25.83
2018-06-08T17:10:39.722Z,13.93
2018-06-08T17:13:07.551Z,10.47
2018-06-08T17:15:35.291Z,8.87
2018-06-08T17:18:03.044Z,9.73
2018-06-08T17:20:30.805Z,7.87
2018-06-08T18:12:09.259Z,11.50
2018-06-08T18:14:36.964Z,9.40
2018-06-08T18:17:05.304Z,21.97
2018-06-08T18:19:33.544Z,8.33
2018-06-08T18:22:01.276Z,8.90
2018-06-08T18:24:28.958Z,8.60
2018-06-08T18:26:56.707Z,14.07
